Pagrindinis puslapis
METAR-TAF:

METAR-TAF

Oro uostai :

Žuazeiro do Nortė, Ceará, Brazilija

platuma: 07-13-06S, ilguma: 039-16-18W, Aukštis: 424 m

Dabartinis oras

Ataskaita buvo paskelbta 26 minutes, ne 22:00 UTC
Vėjas 6 kt iš Pietų
Temperatūra 31°C
Drėgmė 29%
Slėgis 1016 hPa
Matomumas 10 km arba daugiau
Mažai debesys ne aukštis 2000 ft

METAR: SBJU 162200Z 18006KT 9999 FEW020 31/11 Q1016

Laikas: 19:26 (22:26 UTC)


TAF: trūkstamas

Orai ataskaitas ir orų prognozės (METAR, TAF).

turimą stotys yra geltonos ir raudonos taškus žemėlapyje.

Perkelti pele per norėdami pamatyti stoties vardą.

Tada spustelėkite, norėdami matyti oro stebėjimo ir prognozės.

Norėdami pakeisti žemėlapį: spustelėkite ant žalios mygtukų su juodo kryžiaus žemyn,; žalią mygtuką su brūkšneliu, jei norite nutolinti; arba žalių rodyklių gretimoms žemėlapius.


METAR-TAF: